Latest Weather Observations for Gabo Island

IDV60801

Issued at 6:22 am EDT Saturday 19 October 2019 (issued every 10 minutes, with the page automatically refreshed every 10 minutes)

About weather observations | Map of weather stations | Latest weather observations for VIC | Other Formats
Station Details ID: 084016 Name: GABO ISLAND LIGHTHOUSE Lat: -37.57 Lon: 149.92 Height: 15.2 m
Data from the previous 72 hours. | See also: Recent months at Gabo Island
Date/Time
EDT
Temp
°C
App
Temp
°C
Dew
Point
°C
Rel
Hum
%
Delta-T
°C
Wind Press
QNH
hPa
Press
MSL
hPa
Rain since
9am
mm
Dir  Spd
km/h
Gust
km/h
Spd
kts
Gust
kts
19/06:00am 12.6 8.0 9.5 81 1.6 WSW 24 30 13 16 1010.8 1010.8 0.0
19/05:30am 12.8 7.5 9.7 81 1.6 WSW 28 33 15 18 1010.6 1010.6 0.0
19/05:00am 13.1 7.0 9.8 80 1.7 WSW 32 37 17 20 1009.9 1009.9 0.0
19/04:30am 13.6 7.1 10.3 80 1.7 WSW 35 41 19 22 1010.6 1010.6 0.0
19/04:00am 13.8 7.7 10.6 81 1.7 SW 33 44 18 24 1010.7 1010.7 0.0
19/03:30am 14.2 8.1 10.6 79 1.9 SW 33 39 18 21 1011.1 1011.1 0.0
19/03:00am 14.2 6.6 10.6 79 1.9 SW 41 46 22 25 1011.3 1011.3 0.0
19/02:30am 14.5 5.2 10.7 78 2.0 SW 50 59 27 32 1011.4 1011.4 0.0
19/02:08am 14.9 6.3 11.6 80 1.8 WSW 48 59 26 32 1010.9 1010.9 0.0
19/02:00am 14.2 6.9 7.3 63 3.4 W 35 56 19 30 1010.9 1010.9 0.0
19/01:55am 14.0 8.9 7.7 66 3.1 W 24 48 13 26 1010.7 1010.7 0.0
19/01:30am 13.9 10.9 9.2 73 2.4 WSW 15 19 8 10 1009.6 1009.6 0.0
19/01:00am 16.6 10.4 -0.6 31 7.3 N 22 30 12 16 1009.0 1009.0 0.0
19/12:30am 15.2 10.0 2.5 42 5.7 N 19 24 10 13 1009.1 1009.1 0.0
19/12:00am 13.4 9.5 7.3 66 3.0 N 17 20 9 11 1009.4 1009.4 0.0
 
Date/Time
EDT
Temp
°C
App
Temp
°C
Dew
Point
°C
Rel
Hum
%
Delta-T
°C
Wind Press
QNH
hPa
Press
MSL
hPa
Rain since
9am
mm
Dir  Spd
km/h
Gust
km/h
Spd
kts
Gust
kts
18/11:30pm 13.6 9.3 5.3 57 3.9 N 17 19 9 10 1009.8 1009.8 0.0
18/11:00pm 13.1 9.7 7.6 69 2.7 N 15 20 8 11 1010.2 1010.2 0.0
18/10:30pm 13.2 10.2 7.7 69 2.7 N 13 15 7 8 1010.6 1010.6 0.0
18/10:00pm 13.4 11.7 9.7 78 1.9 NNW 9 13 5 7 1011.2 1011.2 0.0
18/09:30pm 14.2 12.2 10.2 77 2.1 WNW 11 13 6 7 1011.6 1011.6 0.0
18/09:00pm 14.5 12.4 9.7 73 2.5 NW 11 13 6 7 1011.1 1011.1 0.0
18/08:30pm 14.6 13.3 10.0 74 2.4 NNE 7 9 4 5 1010.7 1010.7 0.0
18/08:00pm 15.2 12.6 10.7 74 2.4 NNE 15 19 8 10 1010.1 1010.1 0.0
18/07:30pm 16.2 11.6 11.0 71 2.8 NNE 26 33 14 18 1009.5 1009.5 0.0
18/07:00pm 16.6 10.8 10.8 68 3.1 NNE 32 39 17 21 1009.0 1009.0 0.0
18/06:30pm 16.7 10.5 11.3 70 2.9 NNE 35 43 19 23 1009.1 1009.1 0.0
18/06:00pm 16.6 9.0 10.6 67 3.2 NE 41 50 22 27 1009.1 1009.1 0.0
18/05:30pm 16.7 9.4 10.3 66 3.4 NE 39 46 21 25 1009.4 1009.4 0.0
18/05:00pm 16.4 9.0 9.9 65 3.4 NE 39 44 21 24 1009.6 1009.6 0.0
18/04:30pm 16.2 8.6 9.2 63 3.6 NE 39 46 21 25 1010.2 1010.2 0.0
18/04:00pm 16.6 9.4 9.1 61 3.9 NE 37 44 20 24 1010.5 1010.5 0.0
18/03:30pm 16.7 8.8 8.0 56 4.4 NE 39 48 21 26 1010.3 1010.3 0.0
18/03:00pm 16.8 9.2 7.7 55 4.6 NE 37 44 20 24 1010.7 1010.7 0.0
18/02:30pm 16.5 10.1 8.5 59 4.1 NE 32 37 17 20 1011.4 1011.4 0.0
18/02:00pm 15.6 10.0 8.7 63 3.5 ENE 28 32 15 17 1012.2 1012.2 0.0
18/01:30pm 15.8 12.5 8.1 60 3.9 E 15 20 8 11 1012.8 1012.8 0.0
18/01:00pm 16.3 13.8 8.2 58 4.1 SE 11 15 6 8 1013.1 1013.1 0.0
18/12:30pm 15.9 11.9 8.9 63 3.6 S 20 24 11 13 1013.2 1013.2 0.0
18/12:00pm 15.9 11.5 8.9 63 3.6 S 22 26 12 14 1013.6 1013.6 0.0
18/11:30am 14.5 9.5 8.1 65 3.2 SSW 24 28 13 15 1014.2 1014.2 0.0
18/11:00am 14.3 8.4 7.6 64 3.3 SW 28 35 15 19 1014.4 1014.4 0.0
18/10:30am 14.9 9.6 8.3 64 3.3 SW 26 33 14 18 1014.7 1014.7 0.0
18/10:00am 15.0 9.5 7.5 61 3.7 WSW 26 32 14 17 1014.8 1014.8 0.0
18/09:30am 14.7 9.2 7.6 62 3.5 WSW 26 33 14 18 1015.1 1015.1 0.0
18/09:00am 13.6 7.4 7.7 67 2.9 WSW 30 39 16 21 1015.2 1015.2 6.2
18/08:30am 13.1 6.6 8.0 71 2.5 W 32 39 17 21 1015.0 1015.0 6.2
18/08:00am 12.5 6.0 8.0 74 2.2 W 32 39 17 21 1015.1 1015.1 6.2
18/07:30am 11.7 5.1 7.8 77 1.9 W 32 41 17 22 1014.7 1014.7 6.2
18/07:00am 12.2 4.7 8.1 76 2.0 WSW 37 48 20 26 1014.3 1014.3 6.2
18/06:30am 11.8 4.7 8.1 78 1.8 WSW 35 46 19 25 1013.8 1013.8 6.2
18/06:00am 11.7 3.1 8.0 78 1.8 WSW 43 54 23 29 1013.1 1013.1 6.2
18/05:30am 11.8 3.2 8.1 78 1.8 WSW 43 52 23 28 1012.8 1012.8 6.2
18/05:00am 11.5 3.2 7.8 78 1.8 W 41 50 22 27 1012.6 1012.6 6.2
18/04:30am 11.4 2.5 7.5 77 1.9 W 44 59 24 32 1011.9 1011.9 6.2
18/04:00am 11.9 3.0 7.8 76 2.0 WSW 44 57 24 31 1011.9 1011.9 6.2
18/03:30am 12.2 3.3 7.7 74 2.2 W 44 57 24 31 1011.9 1011.9 6.2
18/03:00am 12.6 3.4 7.9 73 2.3 WSW 46 69 25 37 1011.7 1011.7 6.2
18/02:53am 12.3 2.6 7.6 73 2.3 WSW 48 69 26 37 1011.5 1011.5 6.2
18/02:30am 12.6 2.2 7.9 73 2.3 WSW 52 67 28 36 1011.2 1011.2 6.2
18/02:00am 12.6 2.7 8.1 74 2.2 WSW 50 65 27 35 1011.0 1011.0 6.2
18/01:30am 12.2 1.4 7.5 73 2.3 WSW 54 72 29 39 1010.8 1010.8 6.2
18/01:08am 12.2 1.4 7.7 74 2.2 WSW 54 72 29 39 1010.9 1010.9 6.2
18/01:00am 12.4 1.3 8.1 75 2.1 WSW 56 72 30 39 1010.8 1010.8 6.2
18/12:31am 12.3 1.5 7.8 74 2.2 WSW 54 72 29 39 1010.7 1010.7 6.2
18/12:30am 12.2 1.2 7.0 70 2.5 WSW 54 70 29 38 1010.7 1010.7 6.2
18/12:00am 12.2 1.3 7.2 71 2.4 WSW 54 67 29 36 1010.6 1010.6 6.2
 
Date/Time
EDT
Temp
°C
App
Temp
°C
Dew
Point
°C
Rel
Hum
%
Delta-T
°C
Wind Press
QNH
hPa
Press
MSL
hPa
Rain since
9am
mm
Dir  Spd
km/h
Gust
km/h
Spd
kts
Gust
kts
17/11:30pm 12.0 0.6 7.7 75 2.1 W 57 70 31 38 1010.4 1010.4 6.2
17/11:10pm 12.2 0.9 7.2 71 2.4 WSW 56 80 30 43 1010.2 1010.2 6.2
17/11:00pm 12.1 0.5 6.6 69 2.6 W 57 70 31 38 1010.2 1010.2 6.2
17/10:30pm 11.7 0.7 6.7 71 2.4 W 54 67 29 36 1010.1 1010.1 6.2
17/10:08pm 11.7 1.9 7.1 73 2.2 W 48 67 26 36 1010.0 1010.0 6.2
17/10:00pm 11.6 0.9 6.5 71 2.4 W 52 67 28 36 1010.0 1010.0 6.2
17/09:54pm 11.5 1.6 6.4 71 2.4 W 48 67 26 36 1009.8 1009.8 6.2
17/09:30pm 11.2 1.8 7.0 75 2.0 W 46 61 25 33 1009.7 1009.7 6.2
17/09:00pm 11.0 2.5 7.0 76 1.9 W 41 50 22 27 1009.5 1009.5 6.2
17/08:30pm 10.8 3.1 7.0 77 1.8 W 37 48 20 26 1009.2 1009.2 6.0
17/08:00pm 10.6 4.7 7.5 81 1.5 W 28 37 15 20 1009.0 1009.0 6.0
17/07:30pm 10.8 3.4 6.8 76 1.9 W 35 44 19 24 1008.9 1008.9 6.0
17/07:00pm 11.3 0.4 7.1 75 2.0 W 54 74 29 40 1008.5 1008.5 6.0
17/06:53pm 11.3 1.5 6.9 74 2.1 W 48 74 26 40 1008.5 1008.5 6.0
17/06:46pm 11.5 1.5 7.8 78 1.8 WSW 50 63 27 34 1008.3 1008.3 5.8
17/06:30pm 13.1 2.9 6.9 66 3.0 WSW 50 63 27 34 1007.7 1007.7 5.8
17/06:00pm 13.3 2.9 7.6 68 2.8 WSW 52 65 28 35 1007.3 1007.3 5.8
17/05:50pm 13.3 2.3 8.3 72 2.5 SW 56 74 30 40 1007.1 1007.1 5.8
17/05:30pm 13.2 0.2 7.3 67 2.9 SW 65 82 35 44 1006.5 1006.5 5.6
17/05:22pm 13.2 4.6 8.2 71 2.5 WSW 43 72 23 39 1006.3 1006.3 5.6
17/05:19pm 13.5 6.5 8.3 71 2.6 WSW 35 63 19 34 1006.3 1006.3 5.6
17/05:00pm 12.0 6.2 8.1 77 1.9 W 28 35 15 19 1006.4 1006.4 5.6
17/04:30pm 11.6 7.1 8.4 81 1.6 WNW 22 30 12 16 1006.1 1006.1 5.6
17/04:00pm 10.6 4.6 7.0 78 1.7 W 28 33 15 18 1006.5 1006.5 5.6
17/03:41pm 10.6 0.5 7.5 81 1.5 W 50 72 27 39 1006.6 1006.6 5.6
17/03:38pm 10.5 -1.8 6.9 78 1.7 W 61 80 33 43 1006.8 1006.8 5.4
17/03:30pm 10.5 -2.5 7.1 79 1.6 WSW 65 91 35 49 1006.6 1006.6 5.0
17/03:29pm 10.8 -2.2 7.3 79 1.7 WSW 65 91 35 49 1006.5 1006.5 4.8
17/03:02pm 14.0 1.2 6.6 61 3.6 SW 63 82 34 44 1004.8 1004.8 4.6
17/03:00pm 14.1 1.7 6.7 61 3.6 SW 61 78 33 42 1004.8 1004.8 4.6
17/02:54pm 14.5 3.1 7.4 62 3.5 SW 57 76 31 41 1004.9 1004.9 4.6
17/02:30pm 14.3 2.9 7.4 63 3.4 SW 57 69 31 37 1004.5 1004.5 4.6
17/02:00pm 13.5 0.8 6.7 63 3.3 SW 63 78 34 42 1004.5 1004.5 4.6
17/01:52pm 13.1 1.1 6.4 64 3.2 SW 59 78 32 42 1004.7 1004.7 4.6
17/01:30pm 12.8 2.1 7.9 72 2.4 SW 54 69 29 37 1004.7 1004.7 4.6
17/01:00pm 10.7 0.9 8.5 86 1.1 WSW 50 67 27 36 1005.8 1005.8 4.6
17/12:54pm 10.8 -0.3 8.8 87 1.0 WSW 57 78 31 42 1005.9 1005.9 4.0
17/12:45pm 11.2 -2.4 8.6 84 1.3 SW 70 89 38 48 1005.6 1005.6 2.4
17/12:30pm 12.3 -1.9 7.8 74 2.2 SW 72 83 39 45 1004.6 1004.6 1.8
17/12:03pm 13.6 5.2 11.0 84 1.4 SW 46 76 25 41 1005.0 1005.0 1.8
17/12:01pm 14.2 6.9 11.6 84 1.4 SW 41 59 22 32 1005.2 1005.2 1.8
17/12:00pm 14.2 7.2 11.4 83 1.5 SW 39 56 21 30 1005.2 1005.2 1.8
17/11:59am 14.0 7.4 11.4 84 1.4 SW 37 56 20 30 1005.2 1005.2 1.6
17/11:53am 14.2 8.7 11.8 85 1.3 SW 32 37 17 20 1005.1 1005.1 1.6
17/11:30am 14.4 12.1 11.8 84 1.4 SW 15 19 8 10 1004.9 1004.9 1.6
17/11:00am 13.3 7.2 11.8 91 0.8 WSW 35 44 19 24 1005.1 1005.1 1.6
17/10:32am 14.8 11.1 11.5 80 1.8 SW 22 50 12 27 1005.1 1005.1 0.0
17/10:30am 15.1 12.9 12.0 82 1.7 SSW 15 39 8 21 1005.1 1005.1 0.0
17/10:00am 15.6 13.9 12.3 81 1.8 NE 13 17 7 9 1004.7 1004.7 0.0
17/09:30am 15.5 13.5 11.6 77 2.1 NE 13 15 7 8 1004.8 1004.8 0.0
17/09:00am 15.5 14.3 11.6 77 2.1 NNE 9 13 5 7 1005.0 1005.0 0.4
17/08:30am 14.7 13.8 11.5 81 1.7 NE 7 9 4 5 1005.2 1005.2 0.4
17/08:00am 14.2 13.5 12.0 87 1.2 NE 7 11 4 6 1005.2 1005.2 0.4
17/07:30am 13.8 13.1 12.1 89 0.9 NNE 7 9 4 5 1005.6 1005.6 0.4
17/07:00am 12.8 11.1 11.1 89 0.9 NNE 11 13 6 7 1005.6 1005.6 0.4
17/06:30am 11.7 9.7 10.1 90 0.8 WNW 11 13 6 7 1005.8 1005.8 0.4
17/06:00am 11.7 9.4 10.3 91 0.7 WNW 13 17 7 9 1006.3 1006.3 0.4
17/05:30am 12.1 10.2 10.6 90 0.8 WNW 11 15 6 8 1006.1 1006.1 0.4
17/05:00am 12.3 10.0 10.6 89 0.9 W 13 15 7 8 1006.2 1006.2 0.4
17/04:30am 12.5 10.4 11.0 90 0.8 W 13 15 7 8 1006.3 1006.3 0.4
17/04:00am 12.7 10.7 11.4 92 0.7 W 13 17 7 9 1006.6 1006.6 0.4
17/03:30am 13.0 9.9 11.7 92 0.7 W 19 22 10 12 1006.7 1006.7 0.4
17/03:00am 13.2 10.0 11.9 92 0.7 WSW 20 24 11 13 1006.9 1006.9 0.4
17/02:30am 13.5 9.9 12.0 91 0.8 WSW 22 26 12 14 1007.2 1007.2 0.4
17/02:00am 13.0 10.7 11.7 92 0.7 WNW 15 20 8 11 1007.6 1007.6 0.4
17/01:30am 13.0 10.7 11.9 93 0.6 NW 15 20 8 11 1008.0 1008.0 0.4
17/01:00am 13.7 10.8 12.4 92 0.7 WNW 19 28 10 15 1008.5 1008.5 0.4
17/12:30am 13.5 10.9 12.0 91 0.8 N 17 20 9 11 1007.8 1007.8 0.4
17/12:00am 13.9 11.2 11.7 86 1.2 NNE 17 20 9 11 1007.8 1007.8 0.4
 
Date/Time
EDT
Temp
°C
App
Temp
°C
Dew
Point
°C
Rel
Hum
%
Delta-T
°C
Wind Press
QNH
hPa
Press
MSL
hPa
Rain since
9am
mm
Dir  Spd
km/h
Gust
km/h
Spd
kts
Gust
kts
16/11:30pm 14.3 12.2 12.3 88 1.1 NNE 15 17 8 9 1008.1 1008.1 0.4
16/11:00pm 13.9 12.0 11.7 86 1.2 N 13 17 7 9 1008.6 1008.6 0.4
16/10:30pm 13.9 12.7 11.7 86 1.2 N 9 13 5 7 1008.3 1008.3 0.4
16/10:00pm 13.9 12.0 11.9 88 1.1 N 13 13 7 7 1008.4 1008.4 0.4
16/09:30pm 14.3 12.8 11.9 85 1.3 NNE 11 15 6 8 1008.3 1008.3 0.4
16/09:00pm 14.8 11.9 12.2 84 1.4 NNE 19 24 10 13 1008.1 1008.1 0.4
16/08:30pm 14.9 11.8 12.1 83 1.5 NNE 20 24 11 13 1008.5 1008.5 0.4
16/08:00pm 15.1 10.5 12.2 83 1.6 NNE 28 37 15 20 1008.4 1008.4 0.4
16/07:30pm 15.1 11.8 12.7 85 1.3 NNE 22 28 12 15 1009.1 1009.1 0.4
16/07:00pm 15.2 12.3 12.8 85 1.3 NNE 20 26 11 14 1009.0 1009.0 0.4
16/06:30pm 15.2 12.2 12.7 85 1.4 NNE 20 24 11 13 1009.0 1009.0 0.4
16/06:00pm 15.4 12.4 12.5 83 1.6 NNE 20 26 11 14 1008.8 1008.8 0.4
16/05:30pm 15.6 14.0 12.7 83 1.6 NE 13 17 7 9 1008.8 1008.8 0.4
16/05:00pm 15.6 14.6 13.3 86 1.3 NE 11 13 6 7 1009.0 1009.0 0.4
16/04:30pm 16.0 16.1 12.6 80 1.9 NE 4 7 2 4 1009.5 1009.5 0.4
16/04:00pm 16.1 16.5 12.5 79 2.0 SE 2 7 1 4 1009.8 1009.8 0.4
16/03:30pm 16.1 15.1 12.3 78 2.1 ENE 9 9 5 5 1009.5 1009.5 0.0
16/03:00pm 16.4 15.0 12.2 76 2.3 E 11 15 6 8 1009.1 1009.1 0.0
16/02:30pm 16.2 13.6 12.0 76 2.3 ENE 17 20 9 11 1009.0 1009.0 0.0
16/02:00pm 16.2 13.1 12.2 77 2.2 ENE 20 20 11 11 1009.4 1009.4 0.0
16/01:30pm 15.9 13.7 12.1 78 2.1 E 15 19 8 10 1009.9 1009.9 0.0
16/01:00pm 15.9 13.6 11.7 76 2.3 ENE 15 17 8 9 1010.1 1010.1 0.0
16/12:30pm 16.5 14.1 11.5 72 2.7 E 15 17 8 9 1010.1 1010.1 0.0
16/12:00pm 16.5 14.8 11.1 70 2.9 E 11 15 6 8 1010.7 1010.7 0.0
16/11:30am 17.1 15.8 11.4 69 3.1 E 9 11 5 6 1011.2 1011.2 0.0
16/11:00am 17.1 16.1 11.0 67 3.3 E 7 9 4 5 1011.6 1011.6 0.0
16/10:30am 16.8 16.0 11.2 69 3.0 E 6 7 3 4 1011.8 1011.8 0.0
16/10:00am 16.2 15.3 11.2 72 2.7 S 7 9 4 5 1011.9 1011.9 0.0
16/09:30am 15.4 14.3 10.7 73 2.5 SW 7 9 4 5 1012.4 1012.4 0.0
16/09:00am 15.0 13.5 10.6 75 2.3 WNW 9 11 5 6 1012.3 1012.3 0.0
16/08:30am 14.5 12.1 9.9 74 2.4 WNW 13 15 7 8 1012.7 1012.7 0.0
16/08:00am 13.8 11.4 9.9 77 2.0 W 13 15 7 8 1012.6 1012.6 0.0
16/07:30am 13.5 11.4 9.6 77 2.0 WNW 11 15 6 8 1012.9 1012.9 0.0
16/07:00am 13.1 11.0 9.8 80 1.7 WNW 11 15 6 8 1013.1 1013.1 0.0
16/06:30am 12.9 10.5 10.0 82 1.5 WNW 13 17 7 9 1013.1 1013.1 0.0

Other formats

Comma delimited format used in spreadsheet applications
http://www.bom.gov.au/fwo/IDV60801/IDV60801.94933.axf

JavaScript Object Notation format (JSON) in row-major order
http://www.bom.gov.au/fwo/IDV60801/IDV60801.94933.json

Data quality

Most of these data are generated automatically and are frequently updated. Quality checks on data are not normally performed. It is possible for incorrect values to appear. Refer to information at About Latest Weather Observations and please check the disclaimer before using these data.